createdAt,value
2023-04-05T00:02:21.527Z,99513.56
2023-04-05T00:04:57.857Z,99512.22
2023-04-05T00:07:26.711Z,99512.69
2023-04-05T00:09:55.161Z,99505.72
2023-04-05T00:12:23.108Z,99511.41
2023-04-05T00:14:51.160Z,99506.16
2023-04-05T00:17:19.515Z,99501.66
2023-04-05T00:19:51.806Z,99509.47
2023-04-05T00:22:20.417Z,99505.53
2023-04-05T00:24:48.327Z,99504.66
2023-04-05T00:27:16.320Z,99500.25
2023-04-05T00:29:44.625Z,99502.78
2023-04-05T00:32:13.285Z,99499.34
2023-04-05T00:34:41.435Z,99498.75
2023-04-05T00:37:09.854Z,99496.97
2023-04-05T00:39:39.532Z,99493.28
2023-04-05T00:42:09.243Z,99500.56
2023-04-05T00:44:37.739Z,99504.44
2023-04-05T00:47:09.321Z,99497.75
2023-04-05T00:49:38.285Z,99499.75
2023-04-05T00:52:06.903Z,99495.72
2023-04-05T00:54:35.367Z,99507.69
2023-04-05T00:57:03.895Z,99497.47
2023-04-05T00:59:31.862Z,99501.47
2023-04-05T01:02:05.079Z,99496.66
2023-04-05T01:04:33.931Z,99495.69
2023-04-05T01:07:13.173Z,99489.72
2023-04-05T01:09:49.071Z,99488.44
2023-04-05T01:12:18.862Z,99492.38
2023-04-05T01:14:55.650Z,99483.94
2023-04-05T01:17:28.629Z,99488.19
2023-04-05T01:20:01.157Z,99490.31
2023-04-05T01:22:48.147Z,99485.69
2023-04-05T01:25:38.573Z,99486.00
2023-04-05T01:28:12.524Z,99483.94
2023-04-05T01:30:42.986Z,99486.31
2023-04-05T01:33:17.260Z,99486.66
2023-04-05T01:36:07.143Z,99481.84
2023-04-05T01:38:39.666Z,99485.22
2023-04-05T01:41:08.193Z,99486.72
2023-04-05T01:43:36.188Z,99480.47
2023-04-05T01:46:04.185Z,99478.16
2023-04-05T01:48:32.672Z,99475.75
2023-04-05T01:51:01.084Z,99472.34
2023-04-05T01:53:29.170Z,99478.19
2023-04-05T01:56:02.004Z,99476.41
2023-04-05T01:58:30.152Z,99476.81
2023-04-05T02:00:58.528Z,99473.09
2023-04-05T02:03:27.031Z,99478.75
2023-04-05T02:05:55.113Z,99476.97
2023-04-05T02:08:23.093Z,99472.38
2023-04-05T02:10:53.725Z,99466.75
2023-04-05T02:13:22.484Z,99475.44
2023-04-05T02:15:51.163Z,99468.66
2023-04-05T02:18:22.633Z,99472.69
2023-04-05T02:20:52.085Z,99470.56
2023-04-05T02:23:20.465Z,99476.13
2023-04-05T02:25:48.432Z,99469.63
2023-04-05T02:28:16.785Z,99473.47
2023-04-05T02:30:44.712Z,99473.88
2023-04-05T02:33:12.885Z,99469.19
2023-04-05T02:35:41.553Z,99471.00
2023-04-05T02:38:09.703Z,99470.53
2023-04-05T02:40:37.887Z,99467.22
2023-04-05T02:43:07.689Z,99467.22
2023-04-05T02:45:36.588Z,99466.56
2023-04-05T02:48:04.735Z,99471.94
2023-04-05T02:50:33.102Z,99469.09
2023-04-05T02:53:01.142Z,99464.94
2023-04-05T02:55:31.229Z,99466.75
2023-04-05T02:58:02.896Z,99466.38
2023-04-05T03:00:32.253Z,99457.28
2023-04-05T03:03:00.790Z,99452.94
2023-04-05T03:05:29.098Z,99462.13
2023-04-05T03:07:59.657Z,99460.94
2023-04-05T03:10:33.011Z,99465.59
2023-04-05T03:13:01.833Z,99465.06
2023-04-05T03:15:33.073Z,99461.66
2023-04-05T03:18:02.260Z,99465.28
2023-04-05T03:20:30.892Z,99463.88
2023-04-05T03:22:59.301Z,99464.19
2023-04-05T03:25:28.786Z,99462.66
2023-04-05T03:27:58.319Z,99463.44
2023-04-05T03:30:26.813Z,99467.47
2023-04-05T03:32:57.525Z,99464.59
2023-04-05T03:35:26.503Z,99476.34
2023-04-05T03:37:55.123Z,99471.56
2023-04-05T03:40:24.276Z,99476.06
2023-04-05T03:42:52.657Z,99476.13
2023-04-05T03:45:23.978Z,99478.69
2023-04-05T03:47:53.797Z,99479.28
2023-04-05T03:50:22.164Z,99480.16
2023-04-05T03:52:50.386Z,99480.34
2023-04-05T03:55:18.973Z,99484.78
2023-04-05T03:57:47.872Z,99487.66
2023-04-05T04:00:18.086Z,99493.31
2023-04-05T04:02:54.064Z,99484.78
2023-04-05T04:05:22.369Z,99483.75
2023-04-05T04:07:51.379Z,99486.12
2023-04-05T04:10:20.598Z,99486.69
2023-04-05T04:12:49.388Z,99493.69
2023-04-05T04:15:18.435Z,99496.56
2023-04-05T04:17:47.276Z,99491.09
2023-04-05T04:20:15.582Z,99491.44
2023-04-05T04:22:44.013Z,99489.19
2023-04-05T04:25:17.900Z,99489.72
2023-04-05T04:27:50.599Z,99494.78
2023-04-05T04:30:22.903Z,99490.69
2023-04-05T04:33:00.177Z,99491.56
2023-04-05T04:35:30.598Z,99493.47
2023-04-05T04:38:00.653Z,99493.31
2023-04-05T04:40:40.804Z,99488.19
2023-04-05T04:43:26.889Z,99493.53
2023-04-05T04:45:55.439Z,99490.66
2023-04-05T04:48:25.680Z,99488.38
2023-04-05T04:50:54.981Z,99496.09
2023-04-05T04:53:24.281Z,99501.16
2023-04-05T04:55:52.547Z,99494.28
2023-04-05T04:58:20.491Z,99497.22
2023-04-05T05:00:49.337Z,99509.56
2023-04-05T05:03:17.495Z,99506.13
2023-04-05T05:05:47.211Z,99506.37
2023-04-05T05:08:21.064Z,99506.63
2023-04-05T05:10:55.516Z,99503.81
2023-04-05T05:13:23.777Z,99503.28
2023-04-05T05:15:52.001Z,99497.75
2023-04-05T05:18:19.921Z,99505.34
2023-04-05T05:20:50.961Z,99498.28
2023-04-05T05:23:18.970Z,99504.72
2023-04-05T05:25:46.984Z,99508.13
2023-04-05T05:28:15.529Z,99501.34
2023-04-05T05:30:43.645Z,99506.84
2023-04-05T05:33:11.886Z,99505.75
2023-04-05T05:35:43.092Z,99505.75
2023-04-05T05:38:13.876Z,99513.06
2023-04-05T05:40:42.706Z,99517.31
2023-04-05T05:43:11.288Z,99505.78
2023-04-05T05:45:39.209Z,99507.63
2023-04-05T05:48:07.550Z,99506.75
2023-04-05T05:50:35.449Z,99508.94
2023-04-05T05:53:03.533Z,99501.88
2023-04-05T05:55:31.884Z,99508.94
2023-04-05T05:58:00.047Z,99497.47
2023-04-05T06:00:28.122Z,99504.34
2023-04-05T06:02:56.541Z,99505.91
2023-04-05T06:05:25.707Z,99502.38
2023-04-05T11:19:50.440Z,99423.94
2023-04-05T11:22:28.376Z,99423.94
2023-04-05T11:24:58.418Z,99416.91
2023-04-05T11:27:36.422Z,99418.53
2023-04-05T11:30:06.351Z,99410.28
2023-04-05T11:32:45.270Z,99418.69
2023-04-05T11:35:23.451Z,99410.03
2023-04-05T11:38:03.280Z,99413.50
2023-04-05T11:40:33.314Z,99406.50
2023-04-05T11:43:08.785Z,99404.31
2023-04-05T11:45:38.201Z,99403.97
2023-04-05T11:48:08.816Z,99400.72
2023-04-05T11:50:38.636Z,99395.00
2023-04-05T11:53:12.383Z,99390.94
2023-04-05T11:55:43.920Z,99389.78
2023-04-05T11:58:14.483Z,99397.94
2023-04-05T12:00:42.873Z,99389.84
2023-04-05T12:03:14.565Z,99378.97
2023-04-05T12:05:51.318Z,99386.69
2023-04-05T12:08:21.304Z,99384.19
2023-04-05T12:11:01.479Z,99375.34
2023-04-05T12:13:35.756Z,99377.19
2023-04-05T12:16:08.489Z,99368.47
2023-04-05T12:18:39.528Z,99377.34
2023-04-05T12:21:11.082Z,99378.88
2023-04-05T12:23:43.642Z,99372.91
2023-04-05T12:26:11.561Z,99366.59
2023-04-05T12:28:57.442Z,99359.78
2023-04-05T12:31:42.797Z,99358.31
2023-04-05T12:34:14.041Z,99349.38
2023-04-05T12:36:46.522Z,99368.97
2023-04-05T12:39:18.543Z,99358.94
2023-04-05T12:41:56.782Z,99355.84
2023-04-05T12:44:31.622Z,99360.28
2023-04-05T12:47:03.374Z,99364.47
2023-04-05T12:49:37.300Z,99356.38
2023-04-05T12:52:05.800Z,99353.19
2023-04-05T12:54:35.089Z,99354.00
2023-04-05T12:57:09.144Z,99357.66
2023-04-05T12:59:37.757Z,99347.91
2023-04-05T13:02:05.994Z,99342.06
2023-04-05T13:04:33.925Z,99341.69
2023-04-05T13:07:02.225Z,99345.66
2023-04-05T13:09:32.568Z,99340.44
2023-04-05T13:12:00.586Z,99334.66
2023-04-05T13:14:28.886Z,99333.22
2023-04-05T13:16:56.822Z,99336.09
2023-04-05T13:19:24.675Z,99339.66
2023-04-05T13:21:52.972Z,99330.87
2023-04-05T13:24:22.843Z,99328.59
2023-04-05T13:26:52.537Z,99331.75
2023-04-05T13:29:20.829Z,99335.84
2023-04-05T13:31:48.764Z,99330.31
2023-04-05T13:34:18.588Z,99334.72
2023-04-05T13:36:48.600Z,99328.25
2023-04-05T13:39:16.443Z,99330.75
2023-04-05T13:41:44.399Z,99327.19
2023-04-05T13:44:12.670Z,99329.31
2023-04-05T13:46:40.752Z,99323.56
2023-04-05T13:49:08.753Z,99313.97
2023-04-05T13:51:46.527Z,99319.12
2023-04-05T13:54:15.579Z,99321.06
2023-04-05T13:56:43.872Z,99317.19
2023-04-05T13:59:16.691Z,99313.81
2023-04-05T14:01:47.235Z,99314.91
2023-04-05T14:04:16.446Z,99315.59
2023-04-05T14:06:44.821Z,99307.09
2023-04-05T14:09:12.852Z,99313.03
2023-04-05T14:11:41.241Z,99311.78
2023-04-05T14:14:09.159Z,99313.41
2023-04-05T14:16:38.248Z,99314.53
2023-04-05T14:19:08.553Z,99309.31
2023-04-05T14:21:37.465Z,99317.06
2023-04-05T14:24:05.752Z,99313.41
2023-04-05T14:26:36.213Z,99314.50
2023-04-05T14:29:04.328Z,99314.28
2023-04-05T14:31:33.609Z,99306.75
2023-04-05T14:34:01.997Z,99317.25
2023-04-05T14:36:31.709Z,99317.47
2023-04-05T14:38:59.662Z,99314.06
2023-04-05T14:41:28.002Z,99304.94
2023-04-05T14:43:56.178Z,99307.87
2023-04-05T14:46:24.219Z,99306.69
2023-04-05T14:48:53.673Z,99317.28
2023-04-05T14:51:21.549Z,99306.16
2023-04-05T14:53:49.840Z,99305.38
2023-04-05T14:56:18.199Z,99315.03
2023-04-05T14:58:46.158Z,99312.53
2023-04-05T15:01:14.221Z,99310.84
2023-04-05T15:03:42.736Z,99317.91
2023-04-05T15:06:12.667Z,99311.12
2023-04-05T15:08:40.764Z,99318.22
2023-04-05T15:11:09.163Z,99309.44
2023-04-05T15:13:37.213Z,99314.72
2023-04-05T15:16:05.385Z,99316.22
2023-04-05T15:18:34.195Z,99317.31
2023-04-05T15:21:02.304Z,99324.72
2023-04-05T15:23:31.640Z,99315.84
2023-04-05T15:25:59.888Z,99314.44
2023-04-05T15:28:31.960Z,99316.38
2023-04-05T15:31:00.287Z,99316.97
2023-04-05T15:33:28.324Z,99321.84
2023-04-05T15:35:56.501Z,99313.97
2023-04-05T15:38:24.781Z,99316.28
2023-04-05T15:40:52.902Z,99323.69
2023-04-05T15:43:21.152Z,99319.28
2023-04-05T15:45:50.656Z,99329.97
2023-04-05T15:48:18.570Z,99322.72
2023-04-05T15:50:47.718Z,99322.19
2023-04-05T15:53:16.170Z,99319.81
2023-04-05T15:55:44.025Z,99325.13
2023-04-05T15:58:12.058Z,99319.88
2023-04-05T16:00:41.618Z,99326.00
2023-04-05T16:03:10.126Z,99329.59
2023-04-05T16:05:38.152Z,99323.31
2023-04-05T16:08:06.470Z,99329.44
2023-04-05T16:10:34.743Z,99329.44
2023-04-05T16:13:03.437Z,99326.06
2023-04-05T16:15:32.783Z,99333.59
2023-04-05T16:18:01.209Z,99336.44
2023-04-05T16:20:30.644Z,99338.28
2023-04-05T16:22:58.563Z,99337.41
2023-04-05T16:25:26.903Z,99344.38
2023-04-05T16:27:54.853Z,99342.62
2023-04-05T16:30:22.947Z,99339.22
2023-04-05T16:32:52.389Z,99336.59
2023-04-05T16:35:20.796Z,99338.37
2023-04-05T16:37:48.730Z,99334.88
2023-04-05T16:40:19.681Z,99337.44
2023-04-05T16:42:47.543Z,99330.53
2023-04-05T16:45:15.698Z,99339.22
2023-04-05T16:47:43.995Z,99334.88
2023-04-05T16:50:11.997Z,99336.63
2023-04-05T16:52:41.683Z,99334.91
2023-04-05T16:55:10.469Z,99334.91
2023-04-05T16:57:38.509Z,99327.97
2023-04-05T17:00:06.887Z,99327.09
2023-04-05T17:02:35.278Z,99333.00
2023-04-05T17:05:04.674Z,99333.78
2023-04-05T17:07:32.640Z,99333.62
2023-04-05T17:10:02.776Z,99336.84
2023-04-05T17:12:30.880Z,99336.09
2023-04-05T17:14:58.849Z,99337.66
2023-04-05T17:17:27.330Z,99336.09
2023-04-05T17:19:55.261Z,99330.16
2023-04-05T17:22:23.081Z,99341.94
2023-04-05T17:24:51.270Z,99335.84
2023-04-05T17:27:19.169Z,99340.44
2023-04-05T17:29:47.057Z,99339.47
2023-04-05T17:32:15.410Z,99338.63
2023-04-05T17:34:43.332Z,99335.59
2023-04-05T17:37:11.367Z,99346.00
2023-04-05T17:39:39.818Z,99345.97
2023-04-05T17:42:07.709Z,99342.25
2023-04-05T17:44:35.732Z,99347.09
2023-04-05T17:47:09.210Z,99343.22
2023-04-05T17:49:37.991Z,99350.28
2023-04-05T17:52:08.947Z,99345.16
2023-04-05T17:54:37.413Z,99359.59
2023-04-05T17:57:06.234Z,99354.44
2023-04-05T17:59:35.471Z,99354.41
2023-04-05T18:02:03.472Z,99355.19
2023-04-05T18:04:31.962Z,99367.19
2023-04-05T18:06:59.869Z,99363.13
2023-04-05T18:09:28.790Z,99360.06
2023-04-05T18:11:57.245Z,99378.09
2023-04-05T18:14:25.620Z,99374.03
2023-04-05T18:16:53.605Z,99372.12
2023-04-05T18:19:21.865Z,99373.38
2023-04-05T18:21:49.756Z,99378.88
2023-04-05T18:24:17.840Z,99385.06
2023-04-05T18:26:46.022Z,99375.66
2023-04-05T18:29:13.908Z,99387.56
2023-04-05T18:31:41.801Z,99391.09
2023-04-05T18:34:10.107Z,99387.09
2023-04-05T18:36:39.945Z,99384.25
2023-04-05T18:39:08.305Z,99381.34
2023-04-05T18:41:37.110Z,99385.06
2023-04-05T18:44:05.029Z,99381.94
2023-04-05T18:46:32.927Z,99385.38
2023-04-05T18:49:01.348Z,99378.72
2023-04-05T18:51:29.226Z,99388.06
2023-04-05T18:53:58.813Z,99386.84
2023-04-05T18:56:27.697Z,99392.75
2023-04-05T18:58:56.227Z,99396.41
2023-04-05T19:01:24.255Z,99384.47
2023-04-05T19:03:52.640Z,99394.09
2023-04-05T19:06:20.663Z,99394.31
2023-04-05T19:08:48.514Z,99391.56
2023-04-05T19:11:18.648Z,99392.22
2023-04-05T19:13:46.864Z,99394.81
2023-04-05T19:16:17.564Z,99390.34
2023-04-05T19:18:46.041Z,99394.25
2023-04-05T19:21:14.188Z,99387.09
2023-04-05T19:23:42.330Z,99384.59
2023-04-05T19:26:11.129Z,99380.56
2023-04-05T19:28:38.950Z,99387.97
2023-04-05T19:31:07.445Z,99392.03
2023-04-05T19:33:35.670Z,99383.25
2023-04-05T19:36:03.896Z,99391.13
2023-04-05T19:38:31.913Z,99393.59
2023-04-05T19:41:00.247Z,99391.72
2023-04-05T19:43:31.845Z,99392.31
2023-04-05T19:46:01.037Z,99391.66
2023-04-05T19:48:40.498Z,99400.00
2023-04-05T19:51:14.596Z,99393.41
2023-04-05T19:53:50.007Z,99397.88
2023-04-05T19:56:27.397Z,99388.59
2023-04-05T19:59:13.984Z,99386.50
2023-04-05T20:01:42.764Z,99389.06
2023-04-05T20:04:18.993Z,99388.75
2023-04-05T20:06:55.314Z,99382.66
2023-04-05T20:09:24.116Z,99384.63
2023-04-05T20:12:03.811Z,99379.41
2023-04-05T20:14:49.121Z,99383.59
2023-04-05T20:17:19.032Z,99385.09
2023-04-05T20:19:57.832Z,99382.13
2023-04-05T20:22:26.969Z,99394.00
2023-04-05T20:24:55.444Z,99393.19
2023-04-05T20:27:23.387Z,99385.34
2023-04-05T20:29:52.738Z,99389.88
2023-04-05T20:32:21.431Z,99398.41
2023-04-05T20:34:49.436Z,99400.78
2023-04-05T20:37:17.469Z,99408.09
2023-04-05T20:39:45.991Z,99413.16
2023-04-05T20:42:14.570Z,99430.44
2023-04-05T20:44:44.104Z,99433.44
2023-04-05T20:47:12.480Z,99425.19
2023-04-05T20:49:40.338Z,99427.88
2023-04-05T20:52:09.035Z,99423.13
2023-04-05T20:54:37.519Z,99424.44
2023-04-05T20:57:05.414Z,99425.12
2023-04-05T20:59:33.333Z,99428.69
2023-04-05T21:02:01.882Z,99425.44
2023-04-05T21:04:30.266Z,99441.06
2023-04-05T21:06:58.309Z,99433.44
2023-04-05T21:09:27.926Z,99435.38
2023-04-05T21:11:55.865Z,99435.88
2023-04-05T21:14:23.715Z,99449.97
2023-04-05T21:16:51.939Z,99440.72
2023-04-05T21:19:19.882Z,99443.47
2023-04-05T21:21:47.833Z,99441.47
2023-04-05T21:24:16.223Z,99444.56
2023-04-05T21:26:44.241Z,99440.94
2023-04-05T21:29:13.016Z,99443.28
2023-04-05T21:31:41.269Z,99445.31
2023-04-05T21:34:09.153Z,99442.25
2023-04-05T21:36:37.055Z,99434.91
2023-04-05T21:39:05.713Z,99436.84
2023-04-05T21:41:33.644Z,99443.25
2023-04-05T21:44:01.627Z,99437.41
2023-04-05T21:46:29.893Z,99441.72
2023-04-05T21:48:57.878Z,99440.25
2023-04-05T21:51:25.879Z,99442.50
2023-04-05T21:53:54.096Z,99442.88
2023-04-05T21:56:22.092Z,99439.13
2023-04-05T21:58:49.947Z,99447.72
2023-04-05T22:01:18.434Z,99450.44
2023-04-05T22:03:46.803Z,99450.69
2023-04-05T22:06:14.686Z,99450.56
2023-04-05T22:08:42.516Z,99448.44
2023-04-05T22:11:10.957Z,99450.03
2023-04-05T22:13:38.916Z,99449.63
2023-04-05T22:16:07.135Z,99444.94
2023-04-05T22:18:35.509Z,99446.81
2023-04-05T22:21:03.667Z,99450.47
2023-04-05T22:23:31.593Z,99450.16
2023-04-05T22:25:59.857Z,99445.19
2023-04-05T22:28:27.895Z,99443.03
2023-04-05T22:30:55.889Z,99438.25
2023-04-05T22:33:24.141Z,99438.56
2023-04-05T22:35:52.132Z,99443.91
2023-04-05T22:38:20.061Z,99441.97
2023-04-05T22:40:48.504Z,99446.34
2023-04-05T22:43:16.412Z,99439.41
2023-04-05T22:45:44.438Z,99438.72
2023-04-05T22:48:12.695Z,99440.62
2023-04-05T22:50:40.750Z,99446.13
2023-04-05T22:53:08.689Z,99442.09
2023-04-05T22:55:39.913Z,99440.38
2023-04-05T22:58:07.890Z,99441.12
2023-04-05T23:00:37.512Z,99444.78
2023-04-05T23:03:05.817Z,99443.53
2023-04-05T23:05:35.470Z,99447.28
2023-04-05T23:08:03.936Z,99441.34
2023-04-05T23:10:31.984Z,99435.44
2023-04-05T23:12:59.919Z,99437.59
2023-04-05T23:15:28.181Z,99433.84
2023-04-05T23:17:56.157Z,99442.81
2023-04-05T23:20:24.150Z,99436.53
2023-04-05T23:22:52.429Z,99429.22
2023-04-05T23:25:20.411Z,99437.25
2023-04-05T23:27:48.287Z,99431.13
2023-04-05T23:30:16.528Z,99439.00
2023-04-05T23:32:44.404Z,99437.53
2023-04-05T23:35:12.427Z,99430.41
2023-04-05T23:37:40.726Z,99433.81
2023-04-05T23:40:09.258Z,99431.44
2023-04-05T23:42:37.362Z,99420.13
2023-04-05T23:45:09.023Z,99424.84
2023-04-05T23:47:38.656Z,99435.47
2023-04-05T23:50:07.824Z,99426.22
2023-04-05T23:52:35.869Z,99423.09
2023-04-05T23:55:04.335Z,99413.75
2023-04-05T23:57:32.587Z,99414.09
